createdAt,value
2022-09-27T00:01:13.601Z,12.02
2022-09-27T00:03:42.502Z,12.03
2022-09-27T00:06:24.295Z,11.96
2022-09-27T00:08:52.953Z,11.93
2022-09-27T00:11:27.189Z,11.91
2022-09-27T00:13:57.937Z,11.89
2022-09-27T00:16:28.602Z,11.88
2022-09-27T00:19:07.796Z,11.88
2022-09-27T00:21:36.175Z,11.91
2022-09-27T00:24:04.653Z,11.89
2022-09-27T00:26:32.827Z,11.86
2022-09-27T00:29:01.113Z,11.85
2022-09-27T00:31:31.753Z,11.81
2022-09-27T00:34:02.683Z,11.78
2022-09-27T00:36:32.592Z,11.78
2022-09-27T00:39:01.399Z,11.76
2022-09-27T00:41:32.931Z,11.74
2022-09-27T00:44:29.468Z,11.72
2022-09-27T00:47:28.464Z,11.71
2022-09-27T00:50:17.485Z,11.71
2022-09-27T00:52:55.327Z,11.74
2022-09-27T00:55:33.398Z,11.73
2022-09-27T00:58:03.143Z,11.72
2022-09-27T01:00:31.911Z,11.71
2022-09-27T01:03:01.579Z,11.71
2022-09-27T01:05:30.572Z,11.71
2022-09-27T01:08:01.172Z,11.70
2022-09-27T01:10:38.747Z,11.66
2022-09-27T01:13:21.381Z,11.63
2022-09-27T01:16:24.161Z,11.60
2022-09-27T01:19:30.831Z,11.58
2022-09-27T01:22:20.611Z,11.59
2022-09-27T01:25:09.981Z,11.62
2022-09-27T01:28:17.068Z,11.58
2022-09-27T01:30:49.970Z,11.55
2022-09-27T01:33:30.102Z,11.54
2022-09-27T01:36:16.107Z,11.51
2022-09-27T01:39:02.807Z,11.51
2022-09-27T01:41:53.918Z,11.53
2022-09-27T01:45:14.111Z,11.48
2022-09-27T01:48:11.025Z,11.40
2022-09-27T01:51:18.350Z,11.35
2022-09-27T01:53:52.257Z,11.28
2022-09-27T01:56:54.940Z,11.26
2022-09-27T01:59:35.505Z,11.23
2022-09-27T02:02:39.447Z,11.16
2022-09-27T02:05:34.727Z,11.14
2022-09-27T02:08:28.807Z,11.12
2022-09-27T02:11:02.513Z,11.10
2022-09-27T02:13:52.743Z,11.13
2022-09-27T02:16:59.479Z,11.10
2022-09-27T02:19:28.870Z,11.11
2022-09-27T02:22:28.801Z,11.08
2022-09-27T02:25:10.606Z,11.01
2022-09-27T02:28:05.559Z,10.99
2022-09-27T02:30:35.454Z,11.02
2022-09-27T02:33:15.983Z,10.98
2022-09-27T02:35:46.193Z,10.94
2022-09-27T02:38:14.676Z,10.89
2022-09-27T02:40:47.625Z,10.81
2022-09-27T02:43:19.690Z,10.72
2022-09-27T02:46:00.146Z,10.75
2022-09-27T02:48:37.066Z,10.79
2022-09-27T02:51:30.226Z,10.74
2022-09-27T02:54:20.315Z,10.71
2022-09-27T02:57:22.073Z,10.74
2022-09-27T03:00:11.126Z,10.73
2022-09-27T03:03:03.515Z,10.75
2022-09-27T03:05:55.000Z,10.76
2022-09-27T03:08:23.583Z,10.75
2022-09-27T03:10:53.496Z,10.74
2022-09-27T03:13:22.081Z,10.73
2022-09-27T03:15:51.179Z,10.72
2022-09-27T03:18:19.452Z,10.69
2022-09-27T03:21:06.056Z,10.70
2022-09-27T03:23:34.951Z,10.72
2022-09-27T03:26:03.233Z,10.69
2022-09-27T03:28:31.603Z,10.67
2022-09-27T03:31:03.460Z,10.62
2022-09-27T03:33:54.678Z,10.57
2022-09-27T03:36:23.056Z,10.51
2022-09-27T03:38:51.333Z,10.48
2022-09-27T03:41:20.119Z,10.50
2022-09-27T03:43:48.293Z,10.41
2022-09-27T03:46:17.034Z,10.36
2022-09-27T03:48:45.359Z,10.34
2022-09-27T03:51:13.530Z,10.34
2022-09-27T03:53:42.964Z,10.33
2022-09-27T03:56:11.517Z,10.34
2022-09-27T03:58:40.101Z,10.38
2022-09-27T04:01:09.146Z,10.36
2022-09-27T04:03:38.395Z,10.33
2022-09-27T04:06:06.986Z,10.32
2022-09-27T04:08:40.578Z,10.29
2022-09-27T04:11:09.160Z,10.28
2022-09-27T04:13:38.769Z,10.27
2022-09-27T04:16:06.839Z,10.26
2022-09-27T04:18:50.491Z,10.30
2022-09-27T04:21:36.466Z,10.26
2022-09-27T04:24:05.855Z,10.24
2022-09-27T04:26:34.249Z,10.23
2022-09-27T04:29:04.470Z,10.19
2022-09-27T04:31:33.873Z,10.13
2022-09-27T04:34:44.704Z,10.07
2022-09-27T04:37:14.561Z,10.06
2022-09-27T04:39:46.848Z,10.08
2022-09-27T04:42:16.258Z,10.04
2022-09-27T04:44:44.714Z,9.98
2022-09-27T04:47:14.143Z,9.98
2022-09-27T04:49:42.903Z,9.96
2022-09-27T04:52:10.975Z,9.94
2022-09-27T04:54:39.352Z,9.90
2022-09-27T04:57:12.546Z,9.88
2022-09-27T04:59:42.971Z,9.92
2022-09-27T05:02:12.000Z,9.90
2022-09-27T05:04:59.698Z,9.86
2022-09-27T05:07:35.439Z,9.82
2022-09-27T05:10:08.221Z,9.77
2022-09-27T05:12:36.508Z,9.75
2022-09-27T05:15:05.588Z,9.74
2022-09-27T05:17:52.807Z,9.75
2022-09-27T05:20:40.251Z,9.75
2022-09-27T05:23:14.053Z,9.68
2022-09-27T05:25:43.454Z,9.66
2022-09-27T05:28:11.935Z,9.64
2022-09-27T05:30:40.052Z,9.64
2022-09-27T05:33:20.059Z,9.66
2022-09-27T05:35:55.892Z,9.66
2022-09-27T05:38:26.651Z,9.72
2022-09-27T05:40:57.776Z,9.71
2022-09-27T05:43:26.577Z,9.74
2022-09-27T05:45:55.192Z,9.79
2022-09-27T05:48:23.948Z,9.81
2022-09-27T05:51:03.054Z,9.85
2022-09-27T05:53:32.793Z,9.89
2022-09-27T05:56:04.345Z,9.98
2022-09-27T05:58:52.486Z,9.98
2022-09-27T06:01:21.298Z,9.99
2022-09-27T06:04:08.492Z,10.01
2022-09-27T06:06:59.194Z,10.05
2022-09-27T06:09:28.392Z,10.10
2022-09-27T06:11:57.486Z,10.17
2022-09-27T06:14:26.583Z,10.21
2022-09-27T06:17:00.595Z,10.22
2022-09-27T06:19:31.430Z,10.24
2022-09-27T06:21:59.705Z,10.30
2022-09-27T06:24:37.299Z,10.36
2022-09-27T06:27:11.416Z,10.45
2022-09-27T06:29:49.519Z,10.51
2022-09-27T06:32:32.747Z,10.56
2022-09-27T06:35:17.918Z,10.61
2022-09-27T06:37:46.607Z,10.65
2022-09-27T06:40:16.064Z,10.72
2022-09-27T06:43:02.291Z,10.82
2022-09-27T06:45:59.599Z,10.89
2022-09-27T06:48:47.600Z,10.96
2022-09-27T06:51:17.216Z,11.02
2022-09-27T06:53:45.280Z,11.10
2022-09-27T06:56:14.067Z,11.20
2022-09-27T06:59:11.835Z,11.30
2022-09-27T07:01:44.296Z,11.32
2022-09-27T07:04:30.915Z,11.38
2022-09-27T07:07:06.461Z,11.43
2022-09-27T07:09:45.285Z,11.52
2022-09-27T07:12:13.970Z,11.64
2022-09-27T07:14:43.580Z,11.71
2022-09-27T07:17:19.432Z,11.77
2022-09-27T07:19:50.063Z,11.83
2022-09-27T07:22:18.551Z,11.87
2022-09-27T07:24:52.042Z,11.93
2022-09-27T07:27:22.482Z,12.02
2022-09-27T07:29:50.540Z,12.08
2022-09-27T07:32:18.612Z,12.14
2022-09-27T07:34:48.730Z,12.19
2022-09-27T07:37:17.820Z,12.26
2022-09-27T07:39:46.307Z,12.31
2022-09-27T07:42:14.686Z,12.42
2022-09-27T07:44:46.136Z,12.50
2022-09-27T07:47:42.150Z,12.58
2022-09-27T07:50:30.510Z,12.66
2022-09-27T07:53:05.749Z,12.71
2022-09-27T07:55:43.036Z,12.77
2022-09-27T07:58:20.221Z,12.86
2022-09-27T08:00:48.738Z,12.92
2022-09-27T08:03:18.206Z,12.98
2022-09-27T08:05:48.870Z,13.03
2022-09-27T08:08:17.861Z,13.07
2022-09-27T08:10:47.833Z,13.10
2022-09-27T08:13:20.554Z,13.16
2022-09-27T08:15:52.782Z,13.21
2022-09-27T08:18:22.409Z,13.22
2022-09-27T08:20:58.259Z,13.27
2022-09-27T08:23:52.749Z,13.34
2022-09-27T08:26:29.627Z,13.41
2022-09-27T08:29:14.222Z,13.51
2022-09-27T08:31:54.579Z,13.62
2022-09-27T08:34:23.783Z,13.70
2022-09-27T08:36:51.816Z,13.75
2022-09-27T08:39:20.808Z,13.81
2022-09-27T08:42:06.491Z,13.86
2022-09-27T08:44:54.837Z,13.93
2022-09-27T08:47:45.334Z,13.98
2022-09-27T08:50:22.976Z,14.09
2022-09-27T08:53:06.155Z,14.16
2022-09-27T08:55:42.173Z,14.23
2022-09-27T08:58:31.379Z,14.29
2022-09-27T09:01:09.026Z,14.36
2022-09-27T09:03:55.177Z,14.42
2022-09-27T09:06:52.818Z,14.48
2022-09-27T09:10:06.475Z,14.55
2022-09-27T09:12:54.214Z,14.62
2022-09-27T09:15:58.429Z,14.68
2022-09-27T09:18:54.248Z,14.73
2022-09-27T09:21:49.763Z,14.80
2022-09-27T09:24:34.219Z,14.90
2022-09-27T09:27:16.728Z,14.97
2022-09-27T09:29:54.119Z,15.05
2022-09-27T09:32:35.194Z,15.05
2022-09-27T09:35:18.319Z,15.04
2022-09-27T09:37:53.045Z,15.03
2022-09-27T09:40:27.389Z,15.14
2022-09-27T09:43:20.625Z,15.23
2022-09-27T09:45:58.761Z,15.31
2022-09-27T09:48:59.368Z,15.35
2022-09-27T09:51:35.732Z,15.42
2022-09-27T09:54:16.238Z,15.50
2022-09-27T09:56:49.282Z,15.57
2022-09-27T09:59:41.521Z,15.62
2022-09-27T10:02:43.486Z,15.69
2022-09-27T10:05:23.436Z,15.70
2022-09-27T10:08:08.199Z,15.77
2022-09-27T10:10:37.808Z,15.83
2022-09-27T10:13:35.780Z,15.89
2022-09-27T10:16:12.830Z,15.95
2022-09-27T10:18:46.276Z,15.98
2022-09-27T10:21:24.673Z,15.99
2022-09-27T10:24:11.313Z,16.03
2022-09-27T10:27:05.958Z,16.08
2022-09-27T10:29:39.387Z,16.13
2022-09-27T10:32:33.245Z,16.20
2022-09-27T10:35:29.169Z,16.19
2022-09-27T10:38:37.182Z,16.19
2022-09-27T10:41:32.802Z,16.18
2022-09-27T10:44:17.336Z,16.20
2022-09-27T10:46:54.656Z,16.29
2022-09-27T10:49:40.940Z,16.33
2022-09-27T10:52:35.633Z,16.40
2022-09-27T10:55:21.964Z,16.49
2022-09-27T10:57:54.816Z,16.56
2022-09-27T11:00:29.735Z,16.64
2022-09-27T11:03:02.121Z,16.71
2022-09-27T11:05:43.505Z,16.84
2022-09-27T11:08:19.153Z,16.99
2022-09-27T11:11:07.500Z,17.13
2022-09-27T11:13:38.029Z,17.21
2022-09-27T11:16:29.193Z,17.20
2022-09-27T11:19:06.742Z,17.20
2022-09-27T11:21:54.161Z,17.21
2022-09-27T11:24:48.445Z,17.20
2022-09-27T11:27:18.156Z,17.19
2022-09-27T11:30:10.191Z,17.21
2022-09-27T11:33:18.099Z,17.19
2022-09-27T11:36:14.120Z,17.08
2022-09-27T11:38:53.253Z,16.89
2022-09-27T11:41:59.620Z,16.72
2022-09-27T11:45:19.881Z,16.62
2022-09-27T11:48:00.716Z,16.63
2022-09-27T11:50:37.972Z,16.69
2022-09-27T11:53:06.043Z,16.72
2022-09-27T11:55:54.083Z,16.74
2022-09-27T11:58:22.256Z,16.79
2022-09-27T12:01:07.231Z,16.83
2022-09-27T12:03:47.583Z,16.78
2022-09-27T12:06:46.989Z,16.75
2022-09-27T12:09:28.884Z,16.69
2022-09-27T12:12:24.020Z,16.68
2022-09-27T12:15:23.302Z,16.69
2022-09-27T12:17:56.766Z,16.72
2022-09-27T12:20:31.417Z,16.75
2022-09-27T12:23:10.036Z,16.78
2022-09-27T12:25:53.554Z,16.84
2022-09-27T12:28:52.873Z,16.92
2022-09-27T12:31:53.155Z,16.90
2022-09-27T12:34:30.999Z,16.86
2022-09-27T12:37:11.258Z,16.84
2022-09-27T12:40:08.005Z,16.84
2022-09-27T12:42:45.288Z,16.80
2022-09-27T12:46:13.607Z,16.74
2022-09-27T12:48:52.598Z,16.71
2022-09-27T12:51:24.998Z,16.68
2022-09-27T12:54:20.178Z,16.66
2022-09-27T12:57:17.814Z,16.66
2022-09-27T13:00:15.082Z,16.65
2022-09-27T13:03:15.826Z,16.71
2022-09-27T13:06:13.809Z,16.75
2022-09-27T13:08:44.030Z,16.77
2022-09-27T13:11:23.597Z,16.78
2022-09-27T13:13:56.866Z,16.79
2022-09-27T13:16:26.185Z,16.78
2022-09-27T13:19:03.146Z,16.76
2022-09-27T13:21:47.707Z,16.75
2022-09-27T13:24:47.414Z,16.71
2022-09-27T13:27:40.533Z,16.67
2022-09-27T13:30:12.978Z,16.64
2022-09-27T13:33:14.403Z,16.68
2022-09-27T13:36:14.113Z,16.68
2022-09-27T13:39:11.988Z,16.68
2022-09-27T13:42:31.868Z,16.68
2022-09-27T13:45:15.506Z,16.67
2022-09-27T13:47:48.481Z,16.66
2022-09-27T13:50:56.910Z,16.64
2022-09-27T13:53:31.125Z,16.62
2022-09-27T13:55:59.710Z,16.60
2022-09-27T13:58:54.099Z,16.58
2022-09-27T14:02:00.600Z,16.56
2022-09-27T14:04:51.577Z,16.58
2022-09-27T14:07:26.714Z,16.64
2022-09-27T14:10:01.242Z,16.64
2022-09-27T14:12:36.989Z,16.65
2022-09-27T14:15:10.907Z,16.69
2022-09-27T14:17:46.387Z,16.72
2022-09-27T14:20:36.224Z,16.73
2022-09-27T14:23:06.035Z,16.74
2022-09-27T14:25:47.319Z,16.72
2022-09-27T14:28:26.037Z,16.68
2022-09-27T14:31:11.261Z,16.63
2022-09-27T14:34:09.228Z,16.59
2022-09-27T14:36:58.553Z,16.52
2022-09-27T14:39:36.762Z,16.45
2022-09-27T14:42:24.570Z,16.39
2022-09-27T14:44:53.766Z,16.33
2022-09-27T14:47:25.450Z,16.33
2022-09-27T14:49:54.756Z,16.29
2022-09-27T14:52:28.862Z,16.25
2022-09-27T14:55:14.238Z,16.22
2022-09-27T14:58:04.818Z,16.22
2022-09-27T15:00:37.007Z,16.23
2022-09-27T15:03:10.028Z,16.21
2022-09-27T15:05:43.083Z,16.20
2022-09-27T15:08:15.556Z,16.22
2022-09-27T15:10:44.891Z,16.24
2022-09-27T15:13:17.721Z,16.26
2022-09-27T15:15:46.625Z,16.31
2022-09-27T15:18:33.033Z,16.29
2022-09-27T15:21:02.007Z,16.25
2022-09-27T15:23:39.926Z,16.23
2022-09-27T15:26:18.443Z,16.17
2022-09-27T15:28:49.791Z,16.10
2022-09-27T15:31:18.738Z,16.03
2022-09-27T15:33:55.765Z,15.97
2022-09-27T15:37:00.297Z,15.89
2022-09-27T15:39:38.089Z,15.79
2022-09-27T15:42:14.866Z,15.72
2022-09-27T15:44:43.149Z,15.69
2022-09-27T15:47:34.776Z,15.69
2022-09-27T15:50:19.015Z,15.62
2022-09-27T15:52:53.025Z,15.57
2022-09-27T15:55:27.343Z,15.54
2022-09-27T15:58:02.286Z,15.51
2022-09-27T16:00:30.623Z,15.44
2022-09-27T16:02:58.827Z,15.35
2022-09-27T16:05:30.485Z,15.30
2022-09-27T16:07:59.477Z,15.28
2022-09-27T16:10:37.235Z,15.23
2022-09-27T16:13:05.798Z,15.24
2022-09-27T16:15:33.931Z,15.20
2022-09-27T16:18:02.207Z,15.18
2022-09-27T16:20:32.325Z,15.15
2022-09-27T16:23:02.137Z,15.16
2022-09-27T16:25:30.233Z,15.13
2022-09-27T16:27:59.611Z,15.10
2022-09-27T16:30:28.173Z,15.06
2022-09-27T16:32:56.572Z,15.06
2022-09-27T16:35:25.259Z,15.11
2022-09-27T16:37:53.330Z,15.07
2022-09-27T16:40:21.758Z,15.02
2022-09-27T16:42:50.193Z,15.02
2022-09-27T16:45:19.669Z,15.03
2022-09-27T16:47:48.380Z,14.99
2022-09-27T16:50:35.192Z,14.95
2022-09-27T16:53:05.425Z,14.90
2022-09-27T16:55:33.694Z,14.87
2022-09-27T16:58:04.115Z,14.86
2022-09-27T17:00:33.558Z,14.89
2022-09-27T17:03:01.796Z,14.86
2022-09-27T17:05:29.865Z,14.85
2022-09-27T17:07:58.142Z,14.83
2022-09-27T17:10:26.215Z,14.79
2022-09-27T17:12:56.229Z,14.75
2022-09-27T17:15:24.403Z,14.72
2022-09-27T17:17:52.475Z,14.67
2022-09-27T17:20:20.451Z,14.66
2022-09-27T17:22:48.515Z,14.64
2022-09-27T17:25:16.893Z,14.63
2022-09-27T17:27:44.967Z,14.64
2022-09-27T17:30:13.139Z,14.66
2022-09-27T17:32:41.210Z,14.65
2022-09-27T17:35:09.598Z,14.64
2022-09-27T17:37:37.864Z,14.62
2022-09-27T17:40:06.575Z,14.59
2022-09-27T17:42:35.646Z,14.58
2022-09-27T17:54:24.160Z,14.56
2022-09-27T17:56:52.332Z,14.56
2022-09-27T17:59:20.401Z,14.57
2022-09-27T18:01:48.860Z,14.56
2022-09-27T18:04:19.922Z,14.56
2022-09-27T18:06:48.098Z,14.61
2022-09-27T18:09:17.892Z,14.61
2022-09-27T18:11:45.980Z,14.58
2022-09-27T18:14:14.108Z,14.52
2022-09-27T18:16:44.300Z,14.47
2022-09-27T18:19:17.162Z,14.45
2022-09-27T18:21:45.338Z,14.43
2022-09-27T18:24:14.418Z,14.41
2022-09-27T18:26:44.123Z,14.42
2022-09-27T18:29:14.977Z,14.42
2022-09-27T18:31:48.165Z,14.40
2022-09-27T18:34:18.611Z,14.36
2022-09-27T18:36:47.072Z,14.32
2022-09-27T18:39:19.418Z,14.29
2022-09-27T18:41:49.394Z,14.30
2022-09-27T18:44:19.000Z,14.32
2022-09-27T18:46:47.312Z,14.31
2022-09-27T18:49:17.053Z,14.31
2022-09-27T18:51:47.259Z,14.24
2022-09-27T18:54:18.777Z,14.20
2022-09-27T18:56:47.923Z,14.14
2022-09-27T18:59:17.413Z,14.09
2022-09-27T19:01:46.498Z,14.07
2022-09-27T19:04:26.176Z,14.04
2022-09-27T19:06:56.887Z,13.95
2022-09-27T19:09:28.863Z,13.87
2022-09-27T19:11:56.935Z,13.83
2022-09-27T19:14:25.110Z,13.77
2022-09-27T19:16:53.180Z,13.73
2022-09-27T19:19:21.359Z,13.75
2022-09-27T19:21:49.898Z,13.74
2022-09-27T19:24:19.134Z,13.73
2022-09-27T19:26:47.513Z,13.69
2022-09-27T19:29:15.723Z,13.64
2022-09-27T19:31:43.891Z,13.54
2022-09-27T19:34:12.137Z,13.48
2022-09-27T19:36:40.749Z,13.49
2022-09-27T19:39:08.747Z,13.45
2022-09-27T19:41:36.863Z,13.39
2022-09-27T19:44:04.933Z,13.34
2022-09-27T19:46:33.069Z,13.30
2022-09-27T19:49:01.290Z,13.25
2022-09-27T19:51:31.299Z,13.22
2022-09-27T19:53:59.471Z,13.16
2022-09-27T19:56:27.545Z,13.08
2022-09-27T19:58:55.718Z,13.03
2022-09-27T20:01:25.542Z,12.99
2022-09-27T20:03:55.941Z,12.92
2022-09-27T20:06:24.232Z,12.88
2022-09-27T20:08:52.513Z,12.85
2022-09-27T20:11:22.966Z,12.80
2022-09-27T20:13:52.769Z,12.78
2022-09-27T20:16:23.129Z,12.73
2022-09-27T20:18:53.718Z,12.67
2022-09-27T20:21:24.772Z,12.67
2022-09-27T20:23:54.864Z,12.63
2022-09-27T20:26:24.983Z,12.57
2022-09-27T20:29:00.124Z,12.54
2022-09-27T20:31:33.875Z,12.49
2022-09-27T20:34:02.001Z,12.45
2022-09-27T20:36:32.935Z,12.46
2022-09-27T20:39:03.859Z,12.45
2022-09-27T20:41:38.294Z,12.40
2022-09-27T20:44:09.643Z,12.37
2022-09-27T20:46:39.778Z,12.38
2022-09-27T20:49:10.392Z,12.43
2022-09-27T20:51:40.755Z,12.45
2022-09-27T20:54:10.993Z,12.42
2022-09-27T20:56:44.744Z,12.41
2022-09-27T20:59:22.941Z,12.35
2022-09-27T21:01:52.740Z,12.34
2022-09-27T21:04:22.563Z,12.36
2022-09-27T21:06:51.676Z,12.40
2022-09-27T21:09:20.074Z,12.44
2022-09-27T21:11:52.212Z,12.44
2022-09-27T21:14:20.467Z,12.45
2022-09-27T21:16:48.772Z,12.49
2022-09-27T21:19:17.586Z,12.52
2022-09-27T21:21:45.938Z,12.52
2022-09-27T21:24:14.111Z,12.50
2022-09-27T21:26:42.185Z,12.48
2022-09-27T21:29:12.200Z,12.47
2022-09-27T21:31:40.322Z,12.44
2022-09-27T21:34:08.479Z,12.46
2022-09-27T21:36:38.563Z,12.48
2022-09-27T21:39:08.892Z,12.48
2022-09-27T21:41:39.139Z,12.50
2022-09-27T21:44:08.513Z,12.48
2022-09-27T21:46:40.956Z,12.50
2022-09-27T21:49:09.369Z,12.55
2022-09-27T21:51:39.690Z,12.59
2022-09-27T21:54:10.425Z,12.57
2022-09-27T21:56:40.139Z,12.54
2022-09-27T21:59:11.985Z,12.52
2022-09-27T22:01:42.341Z,12.55
2022-09-27T22:04:10.390Z,12.54
2022-09-27T22:06:39.851Z,12.58
2022-09-27T22:09:12.347Z,12.56
2022-09-27T22:11:44.355Z,12.57
2022-09-27T22:14:14.431Z,12.59
2022-09-27T22:16:42.829Z,12.61
2022-09-27T22:19:13.090Z,12.61
2022-09-27T22:21:42.307Z,12.58
2022-09-27T22:24:16.363Z,12.56
2022-09-27T22:26:50.002Z,12.49
2022-09-27T22:29:18.966Z,12.49
2022-09-27T22:31:48.019Z,12.50
2022-09-27T22:34:19.000Z,12.49
2022-09-27T22:36:47.266Z,12.51
2022-09-27T22:39:15.424Z,12.53
2022-09-27T22:41:43.512Z,12.54
2022-09-27T22:44:11.583Z,12.57
2022-09-27T22:46:39.760Z,12.62
2022-09-27T22:49:07.930Z,12.58
2022-09-27T22:51:36.002Z,12.55
2022-09-27T22:54:04.379Z,12.52
2022-09-27T22:56:32.451Z,12.48
2022-09-27T22:59:00.522Z,12.42
2022-09-27T23:01:28.800Z,12.43
2022-09-27T23:03:57.415Z,12.44
2022-09-27T23:06:25.559Z,12.46
2022-09-27T23:08:53.938Z,12.45
2022-09-27T23:11:23.413Z,12.46
2022-09-27T23:13:51.510Z,12.42
2022-09-27T23:16:24.689Z,12.42
2022-09-27T23:18:55.132Z,12.40
2022-09-27T23:21:24.940Z,12.32
2022-09-27T23:23:55.387Z,12.26
2022-09-27T23:26:26.423Z,12.25
2022-09-27T23:29:01.962Z,12.23
2022-09-27T23:31:32.423Z,12.29
2022-09-27T23:34:04.448Z,12.31
2022-09-27T23:36:32.722Z,12.28
2022-09-27T23:39:01.631Z,12.28
2022-09-27T23:41:29.994Z,12.29
2022-09-27T23:43:58.678Z,12.29
2022-09-27T23:46:26.835Z,12.33
2022-09-27T23:48:59.120Z,12.33
2022-09-27T23:51:27.302Z,12.26
2022-09-27T23:53:57.315Z,12.24
2022-09-27T23:59:13.808Z,12.20
